sensor_id;sensor_type;location;lat;lon;timestamp;pressure;altitude;pressure_sealevel;temperature;humidity
8334;BME280;4204;43.004;23.052;2023-10-08T00:00:26;94292.25;;;8.58;100.00
8334;BME280;4204;43.004;23.052;2023-10-08T00:03:11;94284.16;;;8.50;100.00
8334;BME280;4204;43.004;23.052;2023-10-08T00:05:39;94289.81;;;8.43;100.00
8334;BME280;4204;43.004;23.052;2023-10-08T00:08:07;94283.34;;;8.49;100.00
8334;BME280;4204;43.004;23.052;2023-10-08T00:10:36;94271.03;;;8.58;100.00
8334;BME280;4204;43.004;23.052;2023-10-08T00:13:06;94268.75;;;8.33;100.00
8334;BME280;4204;43.004;23.052;2023-10-08T00:15:36;94266.50;;;8.22;100.00
8334;BME280;4204;43.004;23.052;2023-10-08T00:18:04;94266.41;;;8.32;100.00
8334;BME280;4204;43.004;23.052;2023-10-08T00:20:35;94262.72;;;8.46;100.00
8334;BME280;4204;43.004;23.052;2023-10-08T00:23:09;94259.38;;;8.41;100.00
8334;BME280;4204;43.004;23.052;2023-10-08T00:25:37;94257.88;;;8.35;100.00
8334;BME280;4204;43.004;23.052;2023-10-08T00:28:08;94261.16;;;8.45;100.00
8334;BME280;4204;43.004;23.052;2023-10-08T00:30:40;94259.44;;;8.54;100.00
8334;BME280;4204;43.004;23.052;2023-10-08T00:33:09;94264.00;;;8.49;100.00
8334;BME280;4204;43.004;23.052;2023-10-08T00:35:40;94258.38;;;8.37;100.00
8334;BME280;4204;43.004;23.052;2023-10-08T00:38:08;94258.47;;;8.32;100.00
8334;BME280;4204;43.004;23.052;2023-10-08T00:40:41;94257.03;;;8.15;100.00
8334;BME280;4204;43.004;23.052;2023-10-08T00:43:29;94252.19;;;8.23;100.00
8334;BME280;4204;43.004;23.052;2023-10-08T00:45:59;94244.25;;;8.04;100.00
8334;BME280;4204;43.004;23.052;2023-10-08T00:48:27;94252.34;;;8.12;100.00
8334;BME280;4204;43.004;23.052;2023-10-08T00:51:03;94248.97;;;8.26;100.00
8334;BME280;4204;43.004;23.052;2023-10-08T00:53:43;94258.16;;;8.33;100.00
8334;BME280;4204;43.004;23.052;2023-10-08T00:56:12;94255.06;;;8.45;100.00
8334;BME280;4204;43.004;23.052;2023-10-08T00:58:45;94238.16;;;8.41;100.00
8334;BME280;4204;43.004;23.052;2023-10-08T01:01:15;94249.81;;;8.58;100.00
8334;BME280;4204;43.004;23.052;2023-10-08T01:03:43;94246.72;;;8.70;100.00
8334;BME280;4204;43.004;23.052;2023-10-08T01:06:13;94252.75;;;8.57;100.00
8334;BME280;4204;43.004;23.052;2023-10-08T01:08:44;94247.34;;;8.30;100.00
8334;BME280;4204;43.004;23.052;2023-10-08T01:11:19;94258.22;;;8.28;100.00
8334;BME280;4204;43.004;23.052;2023-10-08T01:13:48;94253.22;;;8.27;100.00
8334;BME280;4204;43.004;23.052;2023-10-08T01:16:16;94252.53;;;8.16;100.00
8334;BME280;4204;43.004;23.052;2023-10-08T01:18:44;94245.75;;;8.29;100.00
8334;BME280;4204;43.004;23.052;2023-10-08T01:21:18;94258.56;;;8.40;100.00
8334;BME280;4204;43.004;23.052;2023-10-08T01:24:03;94244.75;;;8.43;100.00
8334;BME280;4204;43.004;23.052;2023-10-08T01:26:33;94247.13;;;8.26;100.00
8334;BME280;4204;43.004;23.052;2023-10-08T01:29:08;94250.56;;;8.27;100.00
8334;BME280;4204;43.004;23.052;2023-10-08T01:31:38;94254.13;;;8.17;100.00
8334;BME280;4204;43.004;23.052;2023-10-08T01:34:06;94240.66;;;8.13;100.00
8334;BME280;4204;43.004;23.052;2023-10-08T01:36:35;94245.75;;;8.29;100.00
8334;BME280;4204;43.004;23.052;2023-10-08T01:39:04;94254.56;;;8.43;100.00
8334;BME280;4204;43.004;23.052;2023-10-08T01:41:33;94245.63;;;8.39;100.00
8334;BME280;4204;43.004;23.052;2023-10-08T01:44:06;94240.16;;;8.49;100.00
8334;BME280;4204;43.004;23.052;2023-10-08T01:46:34;94228.69;;;8.53;100.00
8334;BME280;4204;43.004;23.052;2023-10-08T01:49:04;94236.84;;;8.57;100.00
8334;BME280;4204;43.004;23.052;2023-10-08T01:51:39;94222.41;;;8.63;100.00
8334;BME280;4204;43.004;23.052;2023-10-08T01:54:14;94225.06;;;8.63;100.00
8334;BME280;4204;43.004;23.052;2023-10-08T01:56:44;94229.13;;;8.60;100.00
8334;BME280;4204;43.004;23.052;2023-10-08T01:59:12;94229.25;;;8.69;100.00
8334;BME280;4204;43.004;23.052;2023-10-08T02:01:42;94231.63;;;8.52;100.00
8334;BME280;4204;43.004;23.052;2023-10-08T02:04:11;94226.00;;;8.40;100.00
8334;BME280;4204;43.004;23.052;2023-10-08T02:06:39;94225.69;;;8.41;100.00
8334;BME280;4204;43.004;23.052;2023-10-08T02:09:07;94229.91;;;8.42;100.00
8334;BME280;4204;43.004;23.052;2023-10-08T02:11:47;94234.78;;;8.54;100.00
8334;BME280;4204;43.004;23.052;2023-10-08T02:14:16;94236.47;;;8.31;100.00
8334;BME280;4204;43.004;23.052;2023-10-08T02:16:44;94237.25;;;8.32;100.00
8334;BME280;4204;43.004;23.052;2023-10-08T02:19:12;94233.81;;;8.31;100.00
8334;BME280;4204;43.004;23.052;2023-10-08T02:21:44;94245.19;;;8.32;100.00
8334;BME280;4204;43.004;23.052;2023-10-08T02:24:13;94233.34;;;8.24;100.00
8334;BME280;4204;43.004;23.052;2023-10-08T02:26:41;94240.78;;;8.22;100.00
8334;BME280;4204;43.004;23.052;2023-10-08T02:29:11;94238.72;;;8.00;100.00
8334;BME280;4204;43.004;23.052;2023-10-08T02:31:39;94241.94;;;7.97;100.00
8334;BME280;4204;43.004;23.052;2023-10-08T02:34:07;94230.84;;;7.95;100.00
8334;BME280;4204;43.004;23.052;2023-10-08T02:36:35;94236.28;;;8.04;100.00
8334;BME280;4204;43.004;23.052;2023-10-08T02:39:04;94231.63;;;8.14;100.00
8334;BME280;4204;43.004;23.052;2023-10-08T02:41:40;94232.84;;;8.03;100.00
8334;BME280;4204;43.004;23.052;2023-10-08T02:44:08;94228.84;;;7.87;100.00
8334;BME280;4204;43.004;23.052;2023-10-08T02:46:40;94236.13;;;7.95;100.00
8334;BME280;4204;43.004;23.052;2023-10-08T02:49:08;94231.56;;;8.01;100.00
8334;BME280;4204;43.004;23.052;2023-10-08T02:51:39;94225.03;;;8.12;100.00
8334;BME280;4204;43.004;23.052;2023-10-08T02:54:07;94226.91;;;8.11;100.00
8334;BME280;4204;43.004;23.052;2023-10-08T02:56:44;94213.59;;;7.98;100.00
8334;BME280;4204;43.004;23.052;2023-10-08T02:59:12;94224.41;;;8.01;100.00
8334;BME280;4204;43.004;23.052;2023-10-08T03:01:43;94230.00;;;8.00;100.00
8334;BME280;4204;43.004;23.052;2023-10-08T03:04:10;94223.91;;;7.99;100.00
8334;BME280;4204;43.004;23.052;2023-10-08T03:06:45;94218.41;;;8.14;100.00
8334;BME280;4204;43.004;23.052;2023-10-08T03:09:17;94223.41;;;7.97;100.00
8334;BME280;4204;43.004;23.052;2023-10-08T03:11:50;94216.41;;;8.06;100.00
8334;BME280;4204;43.004;23.052;2023-10-08T03:14:19;94218.59;;;7.99;100.00
8334;BME280;4204;43.004;23.052;2023-10-08T03:16:52;94219.25;;;8.10;100.00
8334;BME280;4204;43.004;23.052;2023-10-08T03:19:22;94217.16;;;8.07;100.00
8334;BME280;4204;43.004;23.052;2023-10-08T03:21:52;94213.16;;;8.09;100.00
8334;BME280;4204;43.004;23.052;2023-10-08T03:24:23;94206.34;;;7.85;100.00
8334;BME280;4204;43.004;23.052;2023-10-08T03:27:04;94202.63;;;7.67;100.00
8334;BME280;4204;43.004;23.052;2023-10-08T03:29:39;94207.47;;;7.60;100.00
8334;BME280;4204;43.004;23.052;2023-10-08T03:32:12;94207.41;;;7.47;100.00
8334;BME280;4204;43.004;23.052;2023-10-08T03:34:44;94205.88;;;7.17;100.00
8334;BME280;4204;43.004;23.052;2023-10-08T03:37:14;94205.03;;;6.98;100.00
8334;BME280;4204;43.004;23.052;2023-10-08T03:39:56;94198.28;;;7.10;100.00
8334;BME280;4204;43.004;23.052;2023-10-08T03:42:33;94202.44;;;7.16;100.00
8334;BME280;4204;43.004;23.052;2023-10-08T03:45:07;94204.94;;;7.31;100.00
8334;BME280;4204;43.004;23.052;2023-10-08T03:47:39;94204.63;;;7.33;100.00
8334;BME280;4204;43.004;23.052;2023-10-08T03:50:12;94194.22;;;7.42;100.00
8334;BME280;4204;43.004;23.052;2023-10-08T03:52:44;94199.09;;;7.53;100.00
8334;BME280;4204;43.004;23.052;2023-10-08T03:55:13;94207.03;;;7.53;100.00
8334;BME280;4204;43.004;23.052;2023-10-08T03:57:48;94202.91;;;7.23;100.00
8334;BME280;4204;43.004;23.052;2023-10-08T04:00:36;94200.75;;;7.02;100.00
8334;BME280;4204;43.004;23.052;2023-10-08T04:03:09;94188.03;;;7.04;100.00
8334;BME280;4204;43.004;23.052;2023-10-08T04:05:38;94193.00;;;7.10;100.00
8334;BME280;4204;43.004;23.052;2023-10-08T04:08:26;94184.78;;;7.12;100.00
8334;BME280;4204;43.004;23.052;2023-10-08T04:11:09;94180.50;;;6.92;100.00
8334;BME280;4204;43.004;23.052;2023-10-08T04:13:56;94191.00;;;6.97;100.00
8334;BME280;4204;43.004;23.052;2023-10-08T04:16:26;94182.97;;;6.84;100.00
8334;BME280;4204;43.004;23.052;2023-10-08T04:18:56;94184.50;;;6.90;100.00
8334;BME280;4204;43.004;23.052;2023-10-08T04:21:23;94185.97;;;7.01;100.00
8334;BME280;4204;43.004;23.052;2023-10-08T04:23:53;94186.34;;;7.13;100.00
8334;BME280;4204;43.004;23.052;2023-10-08T04:26:24;94184.09;;;7.25;100.00
8334;BME280;4204;43.004;23.052;2023-10-08T04:28:52;94184.22;;;7.39;100.00
8334;BME280;4204;43.004;23.052;2023-10-08T04:31:24;94189.94;;;7.46;100.00
8334;BME280;4204;43.004;23.052;2023-10-08T04:33:55;94187.91;;;7.61;100.00
8334;BME280;4204;43.004;23.052;2023-10-08T04:36:26;94192.38;;;7.42;100.00
8334;BME280;4204;43.004;23.052;2023-10-08T04:38:54;94195.13;;;7.32;100.00
8334;BME280;4204;43.004;23.052;2023-10-08T04:41:28;94194.56;;;7.35;100.00
8334;BME280;4204;43.004;23.052;2023-10-08T04:43:56;94199.13;;;7.29;100.00
8334;BME280;4204;43.004;23.052;2023-10-08T04:46:29;94199.69;;;7.26;100.00
8334;BME280;4204;43.004;23.052;2023-10-08T04:49:14;94193.00;;;7.34;100.00
8334;BME280;4204;43.004;23.052;2023-10-08T04:51:54;94207.88;;;7.30;100.00
8334;BME280;4204;43.004;23.052;2023-10-08T04:54:24;94204.13;;;7.31;100.00
8334;BME280;4204;43.004;23.052;2023-10-08T04:56:57;94207.06;;;7.29;100.00
8334;BME280;4204;43.004;23.052;2023-10-08T04:59:27;94204.22;;;7.26;100.00
8334;BME280;4204;43.004;23.052;2023-10-08T05:02:00;94199.13;;;7.29;100.00
8334;BME280;4204;43.004;23.052;2023-10-08T05:04:47;94199.72;;;7.45;100.00
8334;BME280;4204;43.004;23.052;2023-10-08T05:07:44;94196.31;;;7.45;100.00
8334;BME280;4204;43.004;23.052;2023-10-08T05:10:54;94206.19;;;7.58;100.00
8334;BME280;4204;43.004;23.052;2023-10-08T05:13:41;94207.34;;;7.70;100.00
8334;BME280;4204;43.004;23.052;2023-10-08T05:16:23;94204.50;;;7.85;100.00
8334;BME280;4204;43.004;23.052;2023-10-08T05:19:11;94202.16;;;7.84;100.00
8334;BME280;4204;43.004;23.052;2023-10-08T05:21:53;94201.22;;;7.93;100.00
8334;BME280;4204;43.004;23.052;2023-10-08T05:24:32;94209.59;;;8.00;100.00
8334;BME280;4204;43.004;23.052;2023-10-08T05:27:07;94204.34;;;7.95;100.00
8334;BME280;4204;43.004;23.052;2023-10-08T05:29:48;94202.22;;;7.97;100.00
8334;BME280;4204;43.004;23.052;2023-10-08T05:32:39;94198.50;;;7.98;100.00
8334;BME280;4204;43.004;23.052;2023-10-08T05:35:33;94205.84;;;8.01;100.00
8334;BME280;4204;43.004;23.052;2023-10-08T05:38:18;94213.44;;;8.08;100.00
8334;BME280;4204;43.004;23.052;2023-10-08T05:41:00;94201.00;;;7.90;100.00
8334;BME280;4204;43.004;23.052;2023-10-08T05:43:54;94199.06;;;7.95;100.00
8334;BME280;4204;43.004;23.052;2023-10-08T05:46:39;94200.06;;;7.99;100.00
8334;BME280;4204;43.004;23.052;2023-10-08T05:49:15;94213.66;;;8.11;100.00
8334;BME280;4204;43.004;23.052;2023-10-08T05:51:52;94200.50;;;8.25;100.00
8334;BME280;4204;43.004;23.052;2023-10-08T05:54:52;94204.94;;;8.48;100.00
8334;BME280;4204;43.004;23.052;2023-10-08T05:57:38;94207.19;;;8.55;100.00
8334;BME280;4204;43.004;23.052;2023-10-08T06:00:14;94212.44;;;8.73;100.00
8334;BME280;4204;43.004;23.052;2023-10-08T06:02:59;94205.69;;;8.81;100.00
8334;BME280;4204;43.004;23.052;2023-10-08T06:05:59;94208.84;;;8.96;100.00
8334;BME280;4204;43.004;23.052;2023-10-08T06:08:43;94215.38;;;9.04;100.00
8334;BME280;4204;43.004;23.052;2023-10-08T06:11:35;94206.53;;;9.22;100.00
8334;BME280;4204;43.004;23.052;2023-10-08T06:14:11;94201.03;;;9.32;100.00
8334;BME280;4204;43.004;23.052;2023-10-08T06:16:43;94201.91;;;9.55;100.00
8334;BME280;4204;43.004;23.052;2023-10-08T06:19:11;94207.59;;;9.75;100.00
8334;BME280;4204;43.004;23.052;2023-10-08T06:21:39;94211.75;;;10.04;100.00
8334;BME280;4204;43.004;23.052;2023-10-08T06:24:08;94213.81;;;10.20;100.00
8334;BME280;4204;43.004;23.052;2023-10-08T06:26:39;94198.91;;;10.33;100.00
8334;BME280;4204;43.004;23.052;2023-10-08T06:29:11;94199.03;;;10.50;100.00
8334;BME280;4204;43.004;23.052;2023-10-08T06:31:53;94209.84;;;10.76;100.00
8334;BME280;4204;43.004;23.052;2023-10-08T06:34:22;94204.22;;;10.77;100.00
8334;BME280;4204;43.004;23.052;2023-10-08T06:36:55;94204.00;;;10.96;100.00
8334;BME280;4204;43.004;23.052;2023-10-08T06:39:25;94192.31;;;11.05;100.00
8334;BME280;4204;43.004;23.052;2023-10-08T06:42:01;94195.84;;;11.23;100.00
8334;BME280;4204;43.004;23.052;2023-10-08T06:44:32;94200.47;;;11.39;100.00
8334;BME280;4204;43.004;23.052;2023-10-08T06:47:03;94194.94;;;11.67;100.00
8334;BME280;4204;43.004;23.052;2023-10-08T06:49:35;94198.56;;;11.88;100.00
8334;BME280;4204;43.004;23.052;2023-10-08T06:52:05;94202.66;;;12.02;100.00
8334;BME280;4204;43.004;23.052;2023-10-08T06:54:37;94209.59;;;12.12;100.00
8334;BME280;4204;43.004;23.052;2023-10-08T06:57:06;94207.41;;;12.31;100.00
8334;BME280;4204;43.004;23.052;2023-10-08T06:59:40;94201.47;;;12.43;100.00
8334;BME280;4204;43.004;23.052;2023-10-08T07:02:08;94197.19;;;12.67;100.00
8334;BME280;4204;43.004;23.052;2023-10-08T07:04:37;94200.00;;;12.79;100.00
8334;BME280;4204;43.004;23.052;2023-10-08T07:07:06;94194.94;;;13.12;100.00
8334;BME280;4204;43.004;23.052;2023-10-08T07:09:35;94192.56;;;13.57;100.00
8334;BME280;4204;43.004;23.052;2023-10-08T07:12:03;94187.38;;;13.90;100.00
8334;BME280;4204;43.004;23.052;2023-10-08T07:14:33;94180.75;;;14.16;100.00
8334;BME280;4204;43.004;23.052;2023-10-08T07:17:01;94184.88;;;14.34;100.00
8334;BME280;4204;43.004;23.052;2023-10-08T07:19:34;94175.34;;;14.45;100.00
8334;BME280;4204;43.004;23.052;2023-10-08T07:22:05;94182.38;;;14.71;100.00
8334;BME280;4204;43.004;23.052;2023-10-08T07:24:44;94167.34;;;14.78;100.00
8334;BME280;4204;43.004;23.052;2023-10-08T07:27:18;94197.00;;;15.06;100.00
8334;BME280;4204;43.004;23.052;2023-10-08T07:29:50;94189.81;;;15.30;100.00
8334;BME280;4204;43.004;23.052;2023-10-08T07:32:21;94188.38;;;15.33;100.00
8334;BME280;4204;43.004;23.052;2023-10-08T07:34:51;94178.78;;;15.44;100.00
8334;BME280;4204;43.004;23.052;2023-10-08T07:37:24;94180.81;;;15.47;100.00
8334;BME280;4204;43.004;23.052;2023-10-08T07:39:52;94171.63;;;15.48;100.00
8334;BME280;4204;43.004;23.052;2023-10-08T07:42:21;94169.09;;;15.52;100.00
8334;BME280;4204;43.004;23.052;2023-10-08T07:44:50;94166.16;;;15.69;100.00
8334;BME280;4204;43.004;23.052;2023-10-08T07:47:21;94164.97;;;15.66;100.00
8334;BME280;4204;43.004;23.052;2023-10-08T07:49:49;94160.88;;;16.08;100.00
8334;BME280;4204;43.004;23.052;2023-10-08T07:52:18;94159.91;;;16.53;100.00
8334;BME280;4204;43.004;23.052;2023-10-08T07:54:47;94157.75;;;16.86;100.00
8334;BME280;4204;43.004;23.052;2023-10-08T07:57:15;94157.69;;;16.98;100.00
8334;BME280;4204;43.004;23.052;2023-10-08T07:59:53;94151.72;;;17.05;100.00
8334;BME280;4204;43.004;23.052;2023-10-08T08:02:27;94153.41;;;17.25;100.00
8334;BME280;4204;43.004;23.052;2023-10-08T08:04:55;94151.50;;;17.41;100.00
8334;BME280;4204;43.004;23.052;2023-10-08T08:07:23;94151.56;;;17.44;100.00
8334;BME280;4204;43.004;23.052;2023-10-08T08:09:53;94146.19;;;17.44;100.00
8334;BME280;4204;43.004;23.052;2023-10-08T08:12:26;94145.63;;;17.51;100.00
8334;BME280;4204;43.004;23.052;2023-10-08T08:15:00;94141.66;;;17.60;100.00
8334;BME280;4204;43.004;23.052;2023-10-08T08:17:30;94151.50;;;17.72;100.00
8334;BME280;4204;43.004;23.052;2023-10-08T08:19:59;94144.31;;;17.92;100.00
8334;BME280;4204;43.004;23.052;2023-10-08T08:22:44;94142.16;;;18.16;100.00
8334;BME280;4204;43.004;23.052;2023-10-08T08:25:16;94131.88;;;18.22;100.00
8334;BME280;4204;43.004;23.052;2023-10-08T08:27:52;94134.22;;;18.23;100.00
8334;BME280;4204;43.004;23.052;2023-10-08T08:30:21;94127.50;;;18.33;100.00
8334;BME280;4204;43.004;23.052;2023-10-08T08:32:52;94129.00;;;18.30;100.00
8334;BME280;4204;43.004;23.052;2023-10-08T08:35:22;94121.41;;;18.36;100.00
8334;BME280;4204;43.004;23.052;2023-10-08T08:37:50;94116.16;;;18.43;100.00
8334;BME280;4204;43.004;23.052;2023-10-08T08:40:18;94117.75;;;18.44;100.00
8334;BME280;4204;43.004;23.052;2023-10-08T08:42:50;94119.19;;;18.57;100.00
8334;BME280;4204;43.004;23.052;2023-10-08T08:45:19;94113.78;;;18.76;100.00
8334;BME280;4204;43.004;23.052;2023-10-08T08:47:49;94125.09;;;18.85;100.00
8334;BME280;4204;43.004;23.052;2023-10-08T08:50:18;94121.94;;;18.80;100.00
8334;BME280;4204;43.004;23.052;2023-10-08T08:52:47;94117.69;;;18.79;100.00
8334;BME280;4204;43.004;23.052;2023-10-08T08:55:15;94116.69;;;18.87;100.00
8334;BME280;4204;43.004;23.052;2023-10-08T08:57:43;94110.38;;;19.02;100.00
8334;BME280;4204;43.004;23.052;2023-10-08T09:00:12;94111.81;;;19.38;100.00
8334;BME280;4204;43.004;23.052;2023-10-08T09:02:40;94101.38;;;19.59;100.00
8334;BME280;4204;43.004;23.052;2023-10-08T09:05:12;94100.47;;;19.74;100.00
8334;BME280;4204;43.004;23.052;2023-10-08T09:07:53;94103.59;;;20.05;99.46
8334;BME280;4204;43.004;23.052;2023-10-08T09:10:22;94101.69;;;20.32;96.38
8334;BME280;4204;43.004;23.052;2023-10-08T09:12:56;94094.63;;;20.54;95.06
8334;BME280;4204;43.004;23.052;2023-10-08T09:15:25;94094.53;;;20.47;94.23
8334;BME280;4204;43.004;23.052;2023-10-08T09:17:53;94096.84;;;20.78;93.80
8334;BME280;4204;43.004;23.052;2023-10-08T09:20:37;94085.41;;;20.91;93.27
8334;BME280;4204;43.004;23.052;2023-10-08T09:23:10;94083.72;;;21.13;92.14
8334;BME280;4204;43.004;23.052;2023-10-08T09:25:39;94079.50;;;21.16;92.38
8334;BME280;4204;43.004;23.052;2023-10-08T09:28:07;94082.31;;;21.30;91.93
8334;BME280;4204;43.004;23.052;2023-10-08T09:30:35;94080.53;;;21.48;91.15
8334;BME280;4204;43.004;23.052;2023-10-08T09:33:05;94081.03;;;21.60;89.73
8334;BME280;4204;43.004;23.052;2023-10-08T09:35:33;94071.25;;;21.45;91.22
8334;BME280;4204;43.004;23.052;2023-10-08T09:38:05;94065.47;;;21.50;90.40
8334;BME280;4204;43.004;23.052;2023-10-08T09:40:36;94072.94;;;21.64;90.09
8334;BME280;4204;43.004;23.052;2023-10-08T09:43:04;94071.03;;;21.68;90.66
8334;BME280;4204;43.004;23.052;2023-10-08T09:45:35;94071.84;;;21.72;89.75
8334;BME280;4204;43.004;23.052;2023-10-08T09:48:06;94068.53;;;21.96;90.28
8334;BME280;4204;43.004;23.052;2023-10-08T09:50:39;94063.09;;;21.93;90.28
8334;BME280;4204;43.004;23.052;2023-10-08T09:53:09;94068.19;;;22.01;89.79
8334;BME280;4204;43.004;23.052;2023-10-08T09:55:45;94055.13;;;22.14;90.93
8334;BME280;4204;43.004;23.052;2023-10-08T09:58:15;94043.91;;;22.22;91.07
8334;BME280;4204;43.004;23.052;2023-10-08T10:00:44;94045.53;;;22.41;90.93
8334;BME280;4204;43.004;23.052;2023-10-08T10:03:15;94047.44;;;22.33;90.44
8334;BME280;4204;43.004;23.052;2023-10-08T10:05:45;94049.03;;;22.41;91.48
8334;BME280;4204;43.004;23.052;2023-10-08T10:08:14;94045.25;;;22.60;90.90
8334;BME280;4204;43.004;23.052;2023-10-08T10:10:42;94037.88;;;22.57;89.72
8334;BME280;4204;43.004;23.052;2023-10-08T10:13:16;94039.09;;;22.63;89.59
8334;BME280;4204;43.004;23.052;2023-10-08T10:15:44;94041.44;;;22.72;89.77
8334;BME280;4204;43.004;23.052;2023-10-08T10:18:13;94027.88;;;22.75;89.79
8334;BME280;4204;43.004;23.052;2023-10-08T10:20:45;94027.09;;;22.78;89.39
8334;BME280;4204;43.004;23.052;2023-10-08T10:23:35;94026.34;;;22.78;89.79
8334;BME280;4204;43.004;23.052;2023-10-08T10:26:04;94027.09;;;22.68;89.97
8334;BME280;4204;43.004;23.052;2023-10-08T10:28:36;94020.91;;;22.78;90.03
8334;BME280;4204;43.004;23.052;2023-10-08T10:31:04;94029.88;;;23.03;89.28
8334;BME280;4204;43.004;23.052;2023-10-08T10:33:34;94017.06;;;23.00;89.83
8334;BME280;4204;43.004;23.052;2023-10-08T10:36:05;94015.91;;;23.04;88.38
8334;BME280;4204;43.004;23.052;2023-10-08T10:38:37;94015.53;;;23.13;87.38
8334;BME280;4204;43.004;23.052;2023-10-08T10:41:08;94016.25;;;22.89;88.47
8334;BME280;4204;43.004;23.052;2023-10-08T10:43:36;93996.50;;;22.85;88.46
8334;BME280;4204;43.004;23.052;2023-10-08T10:46:06;94007.38;;;23.06;88.44
8334;BME280;4204;43.004;23.052;2023-10-08T10:48:55;94000.78;;;23.17;88.30
8334;BME280;4204;43.004;23.052;2023-10-08T10:51:35;94005.47;;;23.20;87.81
8334;BME280;4204;43.004;23.052;2023-10-08T10:54:03;94013.66;;;23.38;88.26
8334;BME280;4204;43.004;23.052;2023-10-08T10:56:36;94005.09;;;23.36;87.87
8334;BME280;4204;43.004;23.052;2023-10-08T10:59:09;93996.19;;;23.36;87.75
8334;BME280;4204;43.004;23.052;2023-10-08T11:01:50;93994.25;;;23.40;88.71
8334;BME280;4204;43.004;23.052;2023-10-08T11:04:32;93996.53;;;23.66;88.53
8334;BME280;4204;43.004;23.052;2023-10-08T11:07:00;93986.06;;;23.64;87.25
8334;BME280;4204;43.004;23.052;2023-10-08T11:09:34;93983.72;;;23.80;87.91
8334;BME280;4204;43.004;23.052;2023-10-08T11:12:07;93993.78;;;23.94;88.30
8334;BME280;4204;43.004;23.052;2023-10-08T11:14:38;93988.38;;;23.83;88.04
8334;BME280;4204;43.004;23.052;2023-10-08T11:17:11;93980.56;;;23.96;87.60
8334;BME280;4204;43.004;23.052;2023-10-08T11:19:41;93984.44;;;23.95;86.96
8334;BME280;4204;43.004;23.052;2023-10-08T11:22:12;93984.81;;;24.11;87.72
8334;BME280;4204;43.004;23.052;2023-10-08T11:24:46;93992.13;;;24.28;87.27
8334;BME280;4204;43.004;23.052;2023-10-08T11:27:17;93996.78;;;24.31;86.75
8334;BME280;4204;43.004;23.052;2023-10-08T11:29:56;94001.44;;;24.27;87.68
8334;BME280;4204;43.004;23.052;2023-10-08T11:32:24;94004.56;;;24.26;86.41
8334;BME280;4204;43.004;23.052;2023-10-08T11:34:56;93998.84;;;23.81;87.65
8334;BME280;4204;43.004;23.052;2023-10-08T11:37:29;93993.84;;;23.62;88.55
8334;BME280;4204;43.004;23.052;2023-10-08T11:40:02;94000.44;;;23.54;88.73
8334;BME280;4204;43.004;23.052;2023-10-08T11:42:42;93991.53;;;23.50;89.03
8334;BME280;4204;43.004;23.052;2023-10-08T11:45:11;94002.38;;;23.50;88.67
8334;BME280;4204;43.004;23.052;2023-10-08T11:47:45;94002.78;;;23.38;89.18
8334;BME280;4204;43.004;23.052;2023-10-08T11:50:15;93993.47;;;23.32;89.42
8334;BME280;4204;43.004;23.052;2023-10-08T11:52:45;93996.53;;;23.30;89.93
8334;BME280;4204;43.004;23.052;2023-10-08T11:55:15;93999.66;;;23.25;90.03
8334;BME280;4204;43.004;23.052;2023-10-08T11:57:46;93993.03;;;23.26;90.61
8334;BME280;4204;43.004;23.052;2023-10-08T12:00:16;93983.34;;;23.18;91.64
8334;BME280;4204;43.004;23.052;2023-10-08T12:02:49;93967.06;;;23.11;91.44
8334;BME280;4204;43.004;23.052;2023-10-08T12:05:18;93975.22;;;23.18;91.76
8334;BME280;4204;43.004;23.052;2023-10-08T12:07:47;93975.25;;;23.33;91.10
8334;BME280;4204;43.004;23.052;2023-10-08T12:10:16;93974.84;;;23.45;92.89
8334;BME280;4204;43.004;23.052;2023-10-08T12:12:49;93965.91;;;23.41;91.08
8334;BME280;4204;43.004;23.052;2023-10-08T12:15:19;93968.25;;;23.56;90.81
8334;BME280;4204;43.004;23.052;2023-10-08T12:17:47;93952.34;;;23.58;90.62
8334;BME280;4204;43.004;23.052;2023-10-08T12:20:41;93958.50;;;23.66;90.72
8334;BME280;4204;43.004;23.052;2023-10-08T12:23:10;93943.38;;;23.75;90.53
8334;BME280;4204;43.004;23.052;2023-10-08T12:25:46;93945.66;;;23.87;91.06
8334;BME280;4204;43.004;23.052;2023-10-08T12:28:18;93939.44;;;23.94;90.78
8334;BME280;4204;43.004;23.052;2023-10-08T12:30:46;93924.69;;;23.91;90.06
8334;BME280;4204;43.004;23.052;2023-10-08T12:33:15;93916.13;;;24.11;89.90
8334;BME280;4204;43.004;23.052;2023-10-08T12:35:43;93924.22;;;24.18;89.99
8334;BME280;4204;43.004;23.052;2023-10-08T12:38:11;93913.78;;;24.13;89.78
8334;BME280;4204;43.004;23.052;2023-10-08T12:40:40;93905.97;;;24.18;89.31
8334;BME280;4204;43.004;23.052;2023-10-08T12:43:20;93909.00;;;24.31;88.90
8334;BME280;4204;43.004;23.052;2023-10-08T12:45:49;93918.31;;;24.33;90.31
8334;BME280;4204;43.004;23.052;2023-10-08T12:48:20;93900.88;;;24.24;87.95
8334;BME280;4204;43.004;23.052;2023-10-08T12:50:48;93898.22;;;24.13;88.27
8334;BME280;4204;43.004;23.052;2023-10-08T12:53:23;93907.19;;;24.10;88.51
8334;BME280;4204;43.004;23.052;2023-10-08T12:55:54;93905.94;;;24.22;88.73
8334;BME280;4204;43.004;23.052;2023-10-08T12:58:24;93901.22;;;24.33;88.44
8334;BME280;4204;43.004;23.052;2023-10-08T13:00:56;93893.47;;;24.28;88.80
8334;BME280;4204;43.004;23.052;2023-10-08T13:03:25;93889.19;;;24.37;88.15
8334;BME280;4204;43.004;23.052;2023-10-08T13:05:57;93897.28;;;24.48;88.54
8334;BME280;4204;43.004;23.052;2023-10-08T13:08:30;93898.84;;;24.42;87.93
8334;BME280;4204;43.004;23.052;2023-10-08T13:10:58;93900.09;;;24.23;88.10
8334;BME280;4204;43.004;23.052;2023-10-08T13:13:30;93898.91;;;24.31;87.47
8334;BME280;4204;43.004;23.052;2023-10-08T13:16:04;93898.53;;;24.26;88.32
8334;BME280;4204;43.004;23.052;2023-10-08T13:18:34;93906.66;;;24.36;89.14
8334;BME280;4204;43.004;23.052;2023-10-08T13:21:16;93900.06;;;24.37;88.57
8334;BME280;4204;43.004;23.052;2023-10-08T13:23:45;93899.25;;;24.40;88.26
8334;BME280;4204;43.004;23.052;2023-10-08T13:26:15;93900.75;;;24.48;89.25
8334;BME280;4204;43.004;23.052;2023-10-08T13:28:45;93889.53;;;24.43;88.24
8334;BME280;4204;43.004;23.052;2023-10-08T13:31:13;93899.69;;;24.35;88.37
8334;BME280;4204;43.004;23.052;2023-10-08T13:33:43;93890.34;;;24.33;88.30
8334;BME280;4204;43.004;23.052;2023-10-08T13:36:15;93895.38;;;24.41;89.25
8334;BME280;4204;43.004;23.052;2023-10-08T13:38:44;93888.00;;;24.38;88.58